Home > Products > Valid Products > TAF

000
FTUS43 KFGF 211100
TAFGFK
TAF
KGFK 211134Z 2112/2212 33018G28KT P6SM -SN BKN025 OVC040
     FM211500 34022G32KT P6SM SCT025 BKN035
     FM212200 35021KT P6SM SCT040
     FM220100 34012KT P6SM SKC=



000
FTUS43 KFGF 211100
TAFFAR
TAF
KFAR 211134Z 2112/2212 33019KT P6SM BKN030 OVC040
     FM211500 34022G32KT P6SM SCT025 BKN035
     FM212200 35021KT P6SM SCT040
     FM220100 34012KT P6SM SKC=



000
FTUS43 KFGF 211100
TAFFAR
TAF
KFAR 211134Z 2112/2212 33019KT P6SM BKN030 OVC040
     FM211500 34022G32KT P6SM SCT025 BKN035
     FM212200 35021KT P6SM SCT040
     FM220100 34012KT P6SM SKC=



000
FTUS43 KFGF 211100
TAFGFK
TAF
KGFK 211134Z 2112/2212 33018G28KT P6SM -SN BKN025 OVC040
     FM211500 34022G32KT P6SM SCT025 BKN035
     FM212200 35021KT P6SM SCT040
     FM220100 34012KT P6SM SKC=



000
FTUS43 KFGF 210500
TAFFAR
TAF
KFAR 210520Z 2106/2206 33018G28KT P6SM SCT025 BKN035
     FM210700 33019KT P6SM BKN030 OVC040
     FM211500 34022G32KT P6SM SCT025 BKN035
     FM212200 35021KT P6SM SCT040
     FM220100 34012KT P6SM SKC=



000
FTUS43 KFGF 210500
TAFGFK
TAF
KGFK 210520Z 2106/2206 33018G28KT P6SM BKN025 OVC040
     FM211500 34022G32KT P6SM SCT025 BKN035
     FM212200 35021KT P6SM SCT040
     FM220100 34012KT P6SM SKC=



000
FTUS43 KFGF 202300
TAFFAR
TAF
KFAR 202336Z 2100/2124 33022G30KT P6SM SCT020 BKN030
      TEMPO 2100/2102 5SM -SHSN BKN020
     FM210600 33018KT P6SM BKN025
     FM211600 32022G30KT P6SM BKN030=



000
FTUS43 KFGF 202300
TAFFAR
TAF
KFAR 202336Z 2100/2124 33022G30KT P6SM SCT020 BKN030
      TEMPO 2100/2102 5SM -SHSN BKN020
     FM210600 33018KT P6SM BKN025
     FM211600 32022G30KT P6SM BKN030=



000
FTUS43 KFGF 202300
TAFGFK
TAF
KGFK 202336Z 2100/2124 33020G30KT P6SM SCT020 BKN030
     FM210400 33020KT P6SM BKN025 OVC040
     FM210700 32019KT P6SM BKN020 OVC030
     FM211500 33022G30KT P6SM SCT020 BKN030=



000
FTUS43 KFGF 202300
TAFGFK
TAF
KGFK 202336Z 2100/2124 33020G30KT P6SM SCT020 BKN030
     FM210400 33020KT P6SM BKN025 OVC040
     FM210700 32019KT P6SM BKN020 OVC030
     FM211500 33022G30KT P6SM SCT020 BKN030=



000
FTUS43 KFGF 202200 AAA
TAFFAR
TAF AMD
KFAR 202202Z 2022/2118 32022G30KT P6SM SCT020 BKN030
      TEMPO 2022/2024 3SM -SHSN BKN020
     FM210600 32018KT P6SM BKN025=



000
FTUS43 KFGF 201700
TAFFAR
TAF
KFAR 201722Z 2018/2118 32025G31KT P6SM BKN035
      TEMPO 2018/2022 5SM -SHSN BKN025
     FM210600 32018KT P6SM BKN025=



000
FTUS43 KFGF 201700
TAFGFK
TAF
KGFK 201722Z 2018/2118 32024G30KT P6SM BKN035
      TEMPO 2018/2022 3SM -SHSN BKN025
     FM210400 32020KT P6SM BKN025=



000
FTUS43 KFGF 201700
TAFFAR
TAF
KFAR 201722Z 2018/2118 32025G31KT P6SM BKN035
      TEMPO 2018/2022 5SM -SHSN BKN025
     FM210600 32018KT P6SM BKN025=



000
FTUS43 KFGF 201700
TAFGFK
TAF
KGFK 201722Z 2018/2118 32024G30KT P6SM BKN035
      TEMPO 2018/2022 3SM -SHSN BKN025
     FM210400 32020KT P6SM BKN025=



000
FTUS43 KFGF 201500 AAA
TAFFAR
TAF AMD
KFAR 201523Z 2015/2112 32025G31KT P6SM BKN030
     FM210200 32018KT P6SM BKN050=



000
FTUS43 KFGF 201500 AAA
TAFGFK
TAF AMD
KGFK 201523Z 2015/2112 32024G30KT P6SM BKN030
     FM210200 32016KT P6SM BKN050=



000
FTUS43 KFGF 201100
TAFGFK
TAF
KGFK 201139Z 2012/2112 34016G24KT P6SM OVC029
     FM201500 32024G30KT P6SM BKN035
     FM210200 32016KT P6SM BKN050=



000
FTUS43 KFGF 201100
TAFFAR
TAF
KFAR 201139Z 2012/2112 32015KT P6SM BKN026
     FM201500 32025G31KT P6SM BKN035
     FM210200 32018KT P6SM BKN050=



000
FTUS43 KFGF 201100
TAFFAR
TAF
KFAR 201139Z 2012/2112 32015KT P6SM BKN026
     FM201500 32025G31KT P6SM BKN035
     FM210200 32018KT P6SM BKN050=



000
FTUS43 KFGF 201100
TAFGFK
TAF
KGFK 201139Z 2012/2112 34016G24KT P6SM OVC029
     FM201500 32024G30KT P6SM BKN035
     FM210200 32016KT P6SM BKN050=



000
FTUS43 KFGF 200500
TAFGFK
TAF
KGFK 200537Z 2006/2106 34018G24KT P6SM OVC040
      TEMPO 2006/2009 OVC019
     FM201500 32023G33KT P6SM BKN040
     FM210200 32018KT P6SM BKN060=



000
FTUS43 KFGF 200500
TAFFAR
TAF
KFAR 200520Z 2006/2106 32015KT P6SM OVC040
     FM201500 32023G33KT P6SM BKN040
     FM210200 32018KT P6SM BKN060=



000
FTUS43 KFGF 200500
TAFGFK
TAF
KGFK 200520Z 2006/2106 32018KT P6SM OVC040
      TEMPO 2006/2009 OVC025
     FM201500 32023G33KT P6SM BKN040
     FM210200 32018KT P6SM BKN060=



000
FTUS43 KFGF 200500
TAFGFK
TAF
KGFK 200520Z 2006/2106 32018KT P6SM OVC040
      TEMPO 2006/2009 OVC025
     FM201500 32023G33KT P6SM BKN040
     FM210200 32018KT P6SM BKN060=



000
FTUS43 KFGF 200500
TAFFAR
TAF
KFAR 200520Z 2006/2106 32015KT P6SM OVC040
     FM201500 32023G33KT P6SM BKN040
     FM210200 32018KT P6SM BKN060=



000
FTUS43 KFGF 192300
TAFGFK
TAF
KGFK 192320Z 2000/2024 33015KT P6SM BKN040
      TEMPO 2000/2003 BKN025
     FM201500 32022G32KT P6SM BKN040=



000
FTUS43 KFGF 192300
TAFFAR
TAF
KFAR 192320Z 2000/2024 33015KT P6SM BKN040
      TEMPO 2000/2003 -SHRA BKN025
     FM201500 32022G32KT P6SM BKN040=



000
FTUS43 KFGF 192000 AAB
TAFFAR
TAF AMD
KFAR 192036Z 1921/2018 31021G29KT P6SM VCSH OVC035
      TEMPO 1921/1922 -RA BKN018
     FM200200 33015KT P6SM OVC035
     FM201200 32018G27KT P6SM OVC025
     FM201400 32024G33KT P6SM BKN030=



000
FTUS43 KFGF 192000 AAB
TAFGFK
TAF AMD
KGFK 192033Z 1921/2018 33019G30KT P6SM VCSH OVC025
      TEMPO 1921/1922 BKN013
     FM200200 33016KT P6SM OVC025
     FM201200 32018G27KT P6SM OVC020
     FM201400 32024G33KT P6SM OVC025=



000
FTUS43 KFGF 191900 AAA
TAFFAR
TAF AMD
KFAR 191913Z 1919/2018 31021G30KT P6SM VCSH OVC026
      TEMPO 1919/1921 -RA BKN018
     FM200200 33015KT P6SM OVC035
     FM201200 32018G27KT P6SM OVC025
     FM201400 32024G33KT P6SM BKN030=



000
FTUS43 KFGF 191800 AAA
TAFGFK
TAF AMD
KGFK 191838Z 1919/2018 32016G25KT P6SM -RA OVC026
      TEMPO 1919/1920 BKN013
     FM192000 33018G29KT P6SM VCSH OVC030
     FM200200 33016KT P6SM OVC025
     FM201200 32018G27KT P6SM OVC020
     FM201400 32024G33KT P6SM OVC025=



000
FTUS43 KFGF 191800 AAA
TAFGFK
TAF AMD
KGFK 191838Z 1919/2018 32016G25KT P6SM -RA OVC026
      TEMPO 1919/1920 BKN013
     FM192000 33018G29KT P6SM VCSH OVC030
     FM200200 33016KT P6SM OVC025
     FM201200 32018G27KT P6SM OVC020
     FM201400 32024G33KT P6SM OVC025=



000
FTUS43 KFGF 191700
TAFGFK
TAF
KGFK 191725Z 1918/2018 31016G25KT P6SM -RA OVC026
     FM191900 33018G29KT P6SM VCSH OVC030
     FM200200 33016KT P6SM OVC025
     FM201200 32018G27KT P6SM OVC020
     FM201400 32024G33KT P6SM OVC025=



000
FTUS43 KFGF 191700
TAFFAR
TAF
KFAR 191725Z 1918/2018 32022G32KT P6SM VCSH OVC026
     FM200200 33015KT P6SM OVC035
     FM201200 32018G27KT P6SM OVC025
     FM201400 32024G33KT P6SM BKN030=



000
FTUS43 KFGF 191700
TAFFAR
TAF
KFAR 191725Z 1918/2018 32022G32KT P6SM VCSH OVC026
     FM200200 33015KT P6SM OVC035
     FM201200 32018G27KT P6SM OVC025
     FM201400 32024G33KT P6SM BKN030=



000
FTUS43 KFGF 191700
TAFGFK
TAF
KGFK 191725Z 1918/2018 31016G25KT P6SM -RA OVC026
     FM191900 33018G29KT P6SM VCSH OVC030
     FM200200 33016KT P6SM OVC025
     FM201200 32018G27KT P6SM OVC020
     FM201400 32024G33KT P6SM OVC025=



000
FTUS43 KFGF 191600 AAC
TAFFAR
TAF AMD
KFAR 191602Z 1916/2012 32022G30KT P6SM VCSH OVC022
     FM191800 32022G32KT P6SM OVC030
     FM200200 32015KT P6SM BKN050=



000
FTUS43 KFGF 191400 AAB
TAFFAR
TAF AMD
KFAR 191408Z 1914/2012 31014KT P6SM VCSH OVC012
     FM191600 32014G23KT P6SM VCSH OVC018
     FM191800 32019G28KT P6SM OVC030
     FM200200 32015KT P6SM BKN050=



000
FTUS43 KFGF 191400 AAB
TAFGFK
TAF AMD
KGFK 191405Z 1914/2012 31013KT P6SM -RA OVC014
     FM191600 33014G22KT P6SM -RA OVC018
     FM191800 33018G29KT P6SM VCSH OVC025
     FM200200 32014G23KT P6SM BKN050=



000
FTUS43 KFGF 191200 AAA
TAFFAR
TAF AMD
KFAR 191250Z 1913/2012 33011KT P6SM -RA OVC035
      TEMPO 1913/1916 3SM -RA BR BKN005
     FM191600 32019G28KT P6SM OVC040
     FM200200 32015KT P6SM BKN050=



000
FTUS43 KFGF 191200 AAA
TAFGFK
TAF AMD
KGFK 191249Z 1913/2012 33009KT P6SM -RA OVC035
      TEMPO 1913/1916 3SM -RA BR OVC008
     FM191600 33020G29KT P6SM OVC050
     FM200200 32014G23KT P6SM BKN050=



000
FTUS43 KFGF 191200 AAA
TAFGFK
TAF AMD
KGFK 191249Z 1913/2012 33009KT P6SM -RA OVC035
      TEMPO 1913/1916 3SM -RA BR OVC008
     FM191600 33020G29KT P6SM OVC050
     FM200200 32014G23KT P6SM BKN050=



000
FTUS43 KFGF 191100
TAFGFK
TAF
KGFK 191139Z 1912/2012 33011KT P6SM -RA OVC035
      TEMPO 1914/1916 3SM -RA BR OVC015
     FM191600 33020G29KT P6SM OVC050
     FM200200 32014G23KT P6SM BKN050=



000
FTUS43 KFGF 191100
TAFGFK
TAF
KGFK 191139Z 1912/2012 33011KT P6SM -RA OVC035
      TEMPO 1914/1916 3SM -RA BR OVC015
     FM191600 33020G29KT P6SM OVC050
     FM200200 32014G23KT P6SM BKN050=



000
FTUS43 KFGF 191100
TAFFAR
TAF
KFAR 191139Z 1912/2012 34006KT P6SM -RA OVC035
      TEMPO 1912/1916 3SM -RA BR BKN007
     FM191600 32019G28KT P6SM OVC040
     FM200200 32015KT P6SM BKN050=



000
FTUS43 KFGF 191100
TAFFAR
TAF
KFAR 191139Z 1912/2012 34006KT P6SM -RA OVC035
      TEMPO 1912/1916 3SM -RA BR BKN007
     FM191600 32019G28KT P6SM OVC040
     FM200200 32015KT P6SM BKN050=



000
FTUS43 KFGF 191000 AAB
TAFFAR
TAF AMD
KFAR 191029Z 1910/2006 07003KT P6SM OVC035
      TEMPO 1910/1912 -RA BKN011
     FM191200 33016G24KT P6SM -RA OVC035
     FM191800 32019G28KT P6SM OVC040
     FM200200 32015KT P6SM BKN050=



000
FTUS43 KFGF 190900 AAA
TAFFAR
TAF AMD
KFAR 190906Z 1909/2006 05003KT P6SM OVC035
      TEMPO 1909/1910 3SM -RA BR BKN005
     FM191100 33016G24KT P6SM -RA OVC035
     FM191800 32019G28KT P6SM OVC040
     FM200200 32015KT P6SM BKN050=



000
FTUS43 KFGF 190500
TAFFAR
TAF
KFAR 190520Z 1906/2006 13008KT P6SM OVC090
     FM190700 10010KT P6SM -RA OVC050
     FM190900 35011KT P6SM -RA OVC025
     FM191100 33016G24KT P6SM -RA OVC035
     FM191800 32019G28KT P6SM OVC040
     FM200200 32015KT P6SM BKN050=



000
FTUS43 KFGF 190500
TAFGFK
TAF
KGFK 190520Z 1906/2006 16008KT P6SM OVC090
     FM190900 32009KT P6SM -RA OVC050
     FM191300 32017G25KT P6SM -RA OVC025
     FM191700 33020G29KT P6SM OVC050
     FM200200 32014G23KT P6SM BKN050=



000
FTUS43 KFGF 190500
TAFGFK
TAF
KGFK 190520Z 1906/2006 16008KT P6SM OVC090
     FM190900 32009KT P6SM -RA OVC050
     FM191300 32017G25KT P6SM -RA OVC025
     FM191700 33020G29KT P6SM OVC050
     FM200200 32014G23KT P6SM BKN050=



000
FTUS43 KFGF 190500
TAFFAR
TAF
KFAR 190520Z 1906/2006 13008KT P6SM OVC090
     FM190700 10010KT P6SM -RA OVC050
     FM190900 35011KT P6SM -RA OVC025
     FM191100 33016G24KT P6SM -RA OVC035
     FM191800 32019G28KT P6SM OVC040
     FM200200 32015KT P6SM BKN050=



000
FTUS43 KFGF 182300
TAFGFK
TAF
KGFK 182320Z 1900/1924 16008KT P6SM BKN120 OVC200
     FM190900 32009KT P6SM -RA OVC050
     FM191300 32017G25KT P6SM -RA OVC035
     FM191700 33020G29KT P6SM OVC050=



000
FTUS43 KFGF 182300
TAFFAR
TAF
KFAR 182320Z 1900/1924 12011KT P6SM BKN120
     FM190500 12008KT P6SM -RA OVC035
     FM190800 35011KT P6SM -RA OVC015
     FM191100 33016G24KT P6SM -RA OVC025
     FM191600 32019G28KT P6SM BKN035=



000
FTUS43 KFGF 181700
TAFGFK
TAF
KGFK 181722Z 1818/1918 16010KT P6SM SCT250
     FM190700 32009KT P6SM -RA OVC050
     FM191500 32017G25KT P6SM OVC035=



000
FTUS43 KFGF 181700
TAFFAR
TAF
KFAR 181722Z 1818/1918 13011KT P6SM BKN150
     FM190400 12008KT P6SM -RA OVC035
     FM190700 35011KT P6SM -RA OVC015
     FM191400 32018G26KT P6SM BKN035=



000
FTUS43 KFGF 181700
TAFFAR
TAF
KFAR 181722Z 1818/1918 13011KT P6SM BKN150
     FM190400 12008KT P6SM -RA OVC035
     FM190700 35011KT P6SM -RA OVC015
     FM191400 32018G26KT P6SM BKN035=



000
FTUS43 KFGF 181700
TAFGFK
TAF
KGFK 181722Z 1818/1918 16010KT P6SM SCT250
     FM190700 32009KT P6SM -RA OVC050
     FM191500 32017G25KT P6SM OVC035=



    US Dept of Commerce
    National Oceanic and Atmospheric Administration
    National Weather Service
    1325 East West Highway
    Silver Spring, MD 20910
    Page Author: NWS Internet Services Team
Disclaimer
Information Quality
Credits
Glossary
Privacy Policy
Freedom of Information Act (FOIA)
About Us
Career Opportunities